Time;durP1;ratioP1;P1;durP2;ratioP2;P2;SDS_P1;SDS_P2;PMS_P1;PMS_P2;Temp;Humidity;BMP_temperature;BMP_pressure;BME280_temperature;BME280_humidity;BME280_pressure;Samples;Min_cycle;Max_cycle;Signal;HPM_P1;HPM_P2
2020/12/10 00:01:45;;;;;;;37.28;20.10;;;;;;;0.98;83.37;95709.59;4881002;29;20288;-73
2020/12/10 00:04:11;;;;;;;41.30;19.55;;;;;;;0.90;83.62;95710.47;4880422;29;20052;-74
2020/12/10 00:06:37;;;;;;;43.38;19.55;;;;;;;0.87;83.64;95700.50;4863768;29;20379;-73
2020/12/10 00:09:03;;;;;;;35.22;18.15;;;;;;;0.88;83.74;95698.72;4880995;29;20389;-74
2020/12/10 00:11:29;;;;;;;39.25;17.42;;;;;;;0.89;83.76;95702.94;4879349;29;20049;-73
2020/12/10 00:13:55;;;;;;;38.15;18.17;;;;;;;0.88;83.75;95701.31;4879194;29;20053;-73
2020/12/10 00:16:28;;;;;;;39.10;18.33;;;;;;;0.88;83.68;95711.63;4880664;29;20422;-73
2020/12/10 00:18:54;;;;;;;39.08;18.45;;;;;;;0.87;83.63;95702.31;4880648;29;20040;-74
2020/12/10 00:21:23;;;;;;;39.78;18.48;;;;;;;0.86;83.67;95698.94;4863273;29;20033;-73
2020/12/10 00:23:50;;;;;;;36.50;19.08;;;;;;;0.86;83.41;95704.09;4880881;29;20049;-74
2020/12/10 00:26:17;;;;;;;37.65;18.88;;;;;;;0.80;83.37;95699.63;4880289;29;20397;-74
2020/12/10 00:28:43;;;;;;;37.35;18.55;;;;;;;0.79;83.52;95698.78;4880406;29;20408;-73
2020/12/10 00:31:09;;;;;;;33.80;17.63;;;;;;;0.80;83.65;95695.25;4880088;29;20390;-73
2020/12/10 00:33:35;;;;;;;35.42;18.45;;;;;;;0.80;83.59;95687.50;4879884;29;21300;-74
2020/12/10 00:36:02;;;;;;;33.72;17.40;;;;;;;0.81;83.57;95686.53;4878360;29;20053;-73
2020/12/10 00:38:28;;;;;;;33.95;18.05;;;;;;;0.78;83.49;95675.78;4880088;29;20053;-73
2020/12/10 00:40:55;;;;;;;36.20;17.52;;;;;;;0.78;83.53;95675.78;4880729;29;20052;-73
2020/12/10 00:43:21;;;;;;;34.17;16.67;;;;;;;0.79;83.58;95670.41;4879943;29;20056;-73
2020/12/10 00:45:53;;;;;;;32.80;17.05;;;;;;;0.79;83.44;95667.81;4880013;29;20486;-74
2020/12/10 00:48:19;;;;;;;32.65;16.65;;;;;;;0.78;83.32;95661.06;4862846;29;20045;-73
2020/12/10 00:50:45;;;;;;;30.83;16.90;;;;;;;0.79;83.33;95669.63;4879494;29;20040;-73
2020/12/10 00:53:12;;;;;;;32.92;16.65;;;;;;;0.79;83.26;95659.28;4877604;29;20057;-74
2020/12/10 00:55:38;;;;;;;33.80;16.92;;;;;;;0.77;83.30;95654.31;4879969;29;20056;-74
2020/12/10 00:58:19;;;;;;;31.95;16.83;;;;;;;0.75;83.27;95656.25;4879921;29;20048;-73
2020/12/10 01:01:03;;;;;;;30.77;16.85;;;;;;;0.76;83.34;95652.72;4871671;29;20067;-74
2020/12/10 01:03:29;;;;;;;27.58;15.48;;;;;;;0.77;83.30;95658.66;4879104;29;20048;-74
2020/12/10 01:05:57;;;;;;;29.63;16.17;;;;;;;0.77;83.31;95656.88;4879998;29;20041;-73
2020/12/10 01:08:26;;;;;;;30.08;15.88;;;;;;;0.77;83.33;95658.66;4878274;29;20049;-73
2020/12/10 01:10:52;;;;;;;33.45;16.38;;;;;;;0.77;83.32;95659.47;4879818;29;20048;-74
2020/12/10 01:13:18;;;;;;;34.10;17.58;;;;;;;0.78;83.29;95655.13;4879432;29;20107;-74
2020/12/10 01:15:54;;;;;;;36.70;17.17;;;;;;;0.79;83.35;95654.13;4880335;29;20045;-73
2020/12/10 01:18:22;;;;;;;28.70;16.50;;;;;;;0.77;83.27;95659.47;4879627;29;20037;-73
2020/12/10 01:20:48;;;;;;;31.48;17.15;;;;;;;0.77;83.29;95658.66;4879604;29;20052;-73
2020/12/10 01:23:15;;;;;;;34.20;17.30;;;;;;;0.74;83.20;95657.25;4878142;29;20469;-73
2020/12/10 01:25:41;;;;;;;31.70;16.90;;;;;;;0.73;83.29;95660.78;4862873;29;20505;-73
2020/12/10 01:28:07;;;;;;;34.63;16.75;;;;;;;0.72;83.29;95655.81;4878294;29;20053;-73
2020/12/10 01:30:33;;;;;;;29.15;17.02;;;;;;;0.71;83.18;95655.00;4867076;29;20056;-73
2020/12/10 01:32:59;;;;;;;28.52;16.13;;;;;;;0.72;83.29;95655.81;4863485;29;20033;-73
2020/12/10 01:35:25;;;;;;;32.13;17.05;;;;;;;0.73;83.31;95655.63;4880402;29;20045;-73
2020/12/10 01:37:52;;;;;;;30.88;15.77;;;;;;;0.74;83.21;95652.09;4878892;29;20045;-73
2020/12/10 01:40:24;;;;;;;31.55;16.77;;;;;;;0.76;83.36;95654.50;4878211;29;20052;-73
2020/12/10 01:42:50;;;;;;;32.90;17.73;;;;;;;0.76;83.26;95646.75;4878287;29;20037;-73
2020/12/10 01:45:16;;;;;;;33.70;16.17;;;;;;;0.76;83.22;95644.16;4879571;29;20409;-73
2020/12/10 01:47:42;;;;;;;35.45;18.15;;;;;;;0.77;82.92;95645.75;4879693;29;20049;-73
2020/12/10 01:50:10;;;;;;;33.13;17.23;;;;;;;0.73;82.73;95639.34;4878663;29;20049;-73
2020/12/10 01:52:36;;;;;;;34.33;17.17;;;;;;;0.67;82.68;95642.63;4879503;29;20045;-73
2020/12/10 01:55:03;;;;;;;32.65;16.63;;;;;;;0.65;82.85;95636.84;4879087;29;20061;-73
2020/12/10 01:57:30;;;;;;;32.30;17.27;;;;;;;0.64;82.85;95643.78;4878861;29;20049;-74
2020/12/10 01:59:57;;;;;;;34.50;17.23;;;;;;;0.65;83.06;95637.66;4879098;29;20052;-73
2020/12/10 02:02:23;;;;;;;33.15;17.10;;;;;;;0.66;82.93;95633.28;4879268;29;20064;-74
2020/12/10 02:04:49;;;;;;;29.88;15.82;;;;;;;0.67;82.76;95629.72;4862748;29;20040;-74
2020/12/10 02:07:15;;;;;;;32.22;16.95;;;;;;;0.69;83.04;95627.78;4862409;29;20041;-73
2020/12/10 02:09:42;;;;;;;31.55;17.02;;;;;;;0.69;82.84;95618.25;4876968;29;20478;-74
2020/12/10 02:12:09;;;;;;;33.03;16.55;;;;;;;0.70;82.73;95614.69;4878890;29;20041;-74
2020/12/10 02:14:37;;;;;;;33.30;16.27;;;;;;;0.71;82.67;95613.72;4878895;29;20053;-74
2020/12/10 02:17:05;;;;;;;31.15;16.45;;;;;;;0.71;82.92;95605.19;4882609;29;20037;-73
2020/12/10 02:19:31;;;;;;;30.98;16.70;;;;;;;0.72;82.65;95610.16;4882678;29;20466;-74
2020/12/10 02:21:57;;;;;;;32.08;17.13;;;;;;;0.74;82.88;95607.41;4882436;29;20045;-73
2020/12/10 02:24:24;;;;;;;28.60;15.07;;;;;;;0.74;82.90;95607.41;4865908;29;20049;-74
2020/12/10 02:26:51;;;;;;;29.75;15.68;;;;;;;0.75;82.54;95604.63;4865831;29;20045;-73
2020/12/10 02:29:18;;;;;;;32.53;16.80;;;;;;;0.76;82.83;95603.69;4882539;29;20510;-73
2020/12/10 02:31:44;;;;;;;31.30;17.10;;;;;;;0.73;82.65;95596.28;4882051;29;20052;-73
2020/12/10 02:34:12;;;;;;;35.97;17.40;;;;;;;0.67;82.38;95593.59;4882308;29;20040;-73
2020/12/10 02:36:39;;;;;;;28.13;16.45;;;;;;;0.63;82.59;95595.75;4882253;29;20044;-73
2020/12/10 02:39:07;;;;;;;33.53;17.15;;;;;;;0.61;82.86;95584.81;4882246;29;20033;-73
2020/12/10 02:41:35;;;;;;;32.30;16.80;;;;;;;0.65;82.96;95593.81;4881102;29;20505;-74
2020/12/10 02:44:02;;;;;;;34.40;17.40;;;;;;;0.66;82.78;95595.38;4878197;29;20041;-73
2020/12/10 02:46:29;;;;;;;33.22;17.48;;;;;;;0.68;82.89;95588.28;4880567;29;20053;-74
2020/12/10 02:48:55;;;;;;;32.78;18.20;;;;;;;0.71;82.81;95585.31;4881758;29;20386;-74
2020/12/10 02:51:21;;;;;;;33.97;17.83;;;;;;;0.73;82.87;95577.41;4881646;29;20044;-73
2020/12/10 02:53:48;;;;;;;32.25;16.88;;;;;;;0.74;82.83;95586.78;4882032;29;20068;-73
2020/12/10 02:56:15;;;;;;;31.63;16.90;;;;;;;0.74;82.56;95579.81;4879996;29;20056;-73
2020/12/10 02:58:42;;;;;;;36.75;18.70;;;;;;;0.74;82.62;95574.66;4882117;29;20048;-73
2020/12/10 03:01:09;;;;;;;32.55;17.08;;;;;;;0.75;82.64;95575.47;4881736;29;20051;-73
2020/12/10 03:03:36;;;;;;;35.95;17.52;;;;;;;0.75;82.75;95568.50;4881809;29;20056;-74
2020/12/10 03:06:07;;;;;;;32.15;18.00;;;;;;;0.76;82.72;95561.59;4881548;29;20051;-74
2020/12/10 03:08:37;;;;;;;33.05;17.20;;;;;;;0.75;82.72;95555.59;4881639;29;20048;-73
2020/12/10 03:11:04;;;;;;;32.50;17.95;;;;;;;0.74;82.59;95556.59;4881673;29;20041;-73
2020/12/10 03:13:30;;;;;;;32.85;18.00;;;;;;;0.73;82.73;95549.81;4882052;29;20488;-73
2020/12/10 03:15:57;;;;;;;31.90;16.65;;;;;;;0.74;82.76;95550.66;4864987;29;20044;-73
2020/12/10 03:18:25;;;;;;;33.78;18.33;;;;;;;0.74;82.91;95543.69;4881150;29;20076;-73
2020/12/10 03:20:52;;;;;;;37.88;19.08;;;;;;;0.73;82.93;95534.34;4864576;29;20044;-73
2020/12/10 03:23:18;;;;;;;33.08;17.88;;;;;;;0.71;82.78;95533.72;4881514;29;20056;-73
2020/12/10 03:25:44;;;;;;;35.83;17.90;;;;;;;0.72;82.67;95534.53;4864858;29;20049;-73
2020/12/10 03:28:10;;;;;;;35.08;17.38;;;;;;;0.71;82.70;95531.13;4880798;29;20045;-74
2020/12/10 03:30:37;;;;;;;35.95;17.20;;;;;;;0.71;82.62;95525.19;4881223;29;20409;-73
2020/12/10 03:33:03;;;;;;;33.95;18.10;;;;;;;0.73;82.81;95518.06;4881081;29;20048;-73
2020/12/10 03:35:29;;;;;;;34.63;17.70;;;;;;;0.72;82.74;95517.28;4881248;29;20045;-73
2020/12/10 03:37:55;;;;;;;34.83;17.65;;;;;;;0.71;82.61;95520.03;4877704;29;20037;-74
2020/12/10 03:40:21;;;;;;;34.58;18.08;;;;;;;0.68;82.65;95513.44;4881149;29;20045;-73
2020/12/10 03:42:47;;;;;;;32.47;16.95;;;;;;;0.67;82.81;95513.63;4881068;29;20470;-73
2020/12/10 03:45:13;;;;;;;33.85;17.52;;;;;;;0.68;82.86;95510.88;4872521;29;20045;-74
2020/12/10 03:47:40;;;;;;;36.47;18.63;;;;;;;0.70;82.87;95508.13;4880879;29;20041;-73
2020/12/10 03:50:06;;;;;;;32.90;17.23;;;;;;;0.70;82.81;95508.13;4880067;29;20052;-73
2020/12/10 03:52:32;;;;;;;33.58;17.80;;;;;;;0.71;82.87;95513.06;4880941;29;20049;-73
2020/12/10 03:54:58;;;;;;;31.60;16.83;;;;;;;0.71;82.71;95513.06;4881001;29;20077;-73
2020/12/10 03:57:24;;;;;;;32.90;15.77;;;;;;;0.73;82.75;95505.97;4879433;29;20053;-73
2020/12/10 03:59:51;;;;;;;32.80;16.33;;;;;;;0.73;82.78;95507.75;4880144;29;20067;-73
2020/12/10 04:02:17;;;;;;;31.10;16.10;;;;;;;0.74;82.71;95506.78;4880002;29;20060;-73
2020/12/10 04:04:43;;;;;;;31.27;16.77;;;;;;;0.73;82.58;95498.22;4881037;29;20048;-73
2020/12/10 04:07:09;;;;;;;32.55;15.93;;;;;;;0.73;82.58;95498.22;4881124;29;20045;-74
2020/12/10 04:09:36;;;;;;;34.45;16.48;;;;;;;0.74;82.61;95496.47;4883080;29;20049;-73
2020/12/10 04:12:02;;;;;;;29.48;15.25;;;;;;;0.74;82.54;95496.47;4881584;29;20044;-73
2020/12/10 04:14:29;;;;;;;33.20;15.40;;;;;;;0.74;82.36;95496.47;4880348;29;20036;-74
2020/12/10 04:16:56;;;;;;;31.45;15.93;;;;;;;0.73;82.39;95493.06;4879302;29;20037;-73
2020/12/10 04:19:22;;;;;;;32.25;15.30;;;;;;;0.71;82.38;95489.06;4880156;29;20053;-73
2020/12/10 04:21:48;;;;;;;31.05;15.93;;;;;;;0.69;82.23;95488.44;4879262;29;20367;-73
2020/12/10 04:24:14;;;;;;;30.23;15.30;;;;;;;0.68;82.29;95494.59;4880524;29;20074;-73
2020/12/10 04:26:40;;;;;;;32.67;16.17;;;;;;;0.70;82.46;95483.09;4879717;29;20048;-73
2020/12/10 04:29:06;;;;;;;30.60;16.45;;;;;;;0.69;82.50;95471.16;4880226;29;20048;-73
2020/12/10 04:31:36;;;;;;;28.67;15.88;;;;;;;0.71;82.46;95479.53;4879438;29;20068;-73
2020/12/10 04:34:02;;;;;;;32.00;16.45;;;;;;;0.69;82.24;95478.13;4875958;29;20041;-73
2020/12/10 04:36:29;;;;;;;31.42;16.60;;;;;;;0.69;82.36;95476.34;4875880;29;20052;-73
2020/12/10 04:38:55;;;;;;;27.38;15.93;;;;;;;0.68;82.40;95479.13;4875079;29;20048;-73
2020/12/10 04:41:21;;;;;;;29.83;15.48;;;;;;;0.66;82.31;95470.75;4880290;29;20049;-73
2020/12/10 04:43:47;;;;;;;30.45;16.25;;;;;;;0.66;82.41;95466.38;4879735;29;20045;-73
2020/12/10 04:46:14;;;;;;;31.42;15.85;;;;;;;0.65;82.30;95467.38;4863333;29;20033;-72
2020/12/10 04:48:41;;;;;;;34.70;17.42;;;;;;;0.66;82.33;95468.16;4879405;29;20048;-73
2020/12/10 04:51:08;;;;;;;30.17;16.10;;;;;;;0.65;82.37;95458.81;4880059;29;20062;-73
2020/12/10 04:53:34;;;;;;;29.92;15.90;;;;;;;0.67;82.39;95456.84;4879881;29;20061;-73
2020/12/10 04:56:05;;;;;;;31.45;16.45;;;;;;;0.67;82.39;95459.44;4879827;29;20049;-73
2020/12/10 04:58:33;;;;;;;35.47;16.50;;;;;;;0.67;82.40;95456.84;4880142;29;20043;-73
2020/12/10 05:01:00;;;;;;;31.85;15.77;;;;;;;0.67;82.39;95464.59;4879713;29;20048;-73
2020/12/10 05:03:27;;;;;;;31.35;16.42;;;;;;;0.67;82.42;95467.97;4879544;29;20044;-74
2020/12/10 05:06:08;;;;;;;31.30;16.08;;;;;;;0.70;82.32;95461.66;4879954;29;20052;-74
2020/12/10 05:08:34;;;;;;;33.05;15.50;;;;;;;0.70;82.40;95456.50;4871315;29;20056;-73
2020/12/10 05:11:00;;;;;;;29.08;15.80;;;;;;;0.69;82.30;95455.69;4878281;29;20029;-73
2020/12/10 05:13:27;;;;;;;32.72;17.23;;;;;;;0.68;82.26;95461.84;4880141;29;20041;-73
2020/12/10 05:15:53;;;;;;;33.35;15.95;;;;;;;0.69;82.28;95454.91;4879926;29;20044;-73
2020/12/10 05:18:20;;;;;;;29.27;15.85;;;;;;;0.69;82.41;95457.47;4879957;29;20044;-73
2020/12/10 05:20:51;;;;;;;35.53;18.30;;;;;;;0.70;82.37;95453.94;4879604;29;20454;-73
2020/12/10 05:23:37;;;;;;;35.95;18.27;;;;;;;0.70;82.26;95456.50;4879158;29;20056;-73
2020/12/10 05:26:05;;;;;;;33.45;16.38;;;;;;;0.68;82.16;95443.00;4879528;29;20040;-73
2020/12/10 05:28:49;;;;;;;32.10;16.27;;;;;;;0.68;82.26;95448.16;4879672;29;20474;-73
2020/12/10 05:31:20;;;;;;;31.52;16.60;;;;;;;0.69;82.23;95447.16;4869028;29;20032;-73
2020/12/10 05:33:57;;;;;;;35.83;17.58;;;;;;;0.68;82.22;95443.78;4879179;29;20065;-73
2020/12/10 05:36:26;;;;;;;32.03;16.77;;;;;;;0.68;82.27;95450.72;4879649;29;20033;-73
2020/12/10 05:39:00;;;;;;;33.55;17.85;;;;;;;0.71;82.47;95452.94;4879544;29;20040;-73
2020/12/10 05:41:26;;;;;;;34.42;17.27;;;;;;;0.66;82.00;95450.91;4879300;29;20041;-73
2020/12/10 05:43:53;;;;;;;35.45;17.45;;;;;;;0.62;81.83;95451.44;4879436;29;20045;-73
2020/12/10 05:46:24;;;;;;;34.38;17.23;;;;;;;0.59;82.09;95445.66;4879055;29;20041;-73
2020/12/10 05:48:52;;;;;;;32.28;17.52;;;;;;;0.53;81.85;95441.22;4879082;29;20053;-73
2020/12/10 05:51:20;;;;;;;33.95;17.23;;;;;;;0.51;82.21;95450.94;4872061;29;20044;-73
2020/12/10 05:53:48;;;;;;;37.05;17.17;;;;;;;0.52;82.47;95449.94;4882866;29;20056;-73
2020/12/10 05:56:16;;;;;;;35.00;17.55;;;;;;;0.55;82.70;95448.78;4865913;29;20049;-73
2020/12/10 05:58:47;;;;;;;32.20;17.65;;;;;;;0.59;82.72;95455.19;4882498;29;20039;-73
2020/12/10 06:01:34;;;;;;;33.85;19.08;;;;;;;0.60;82.79;95442.09;4881643;29;20040;-73
2020/12/10 06:04:02;;;;;;;31.90;17.33;;;;;;;0.63;82.67;95451.28;4882689;29;20041;-73
2020/12/10 06:06:30;;;;;;;32.72;17.65;;;;;;;0.65;82.67;95440.75;4882800;29;20041;-73
2020/12/10 06:09:02;;;;;;;34.20;18.60;;;;;;;0.66;82.57;95445.75;4882671;29;20037;-73
2020/12/10 06:11:29;;;;;;;39.13;17.50;;;;;;;0.65;82.48;95441.56;4882374;29;20048;-73
2020/12/10 06:14:06;;;;;;;29.13;16.63;;;;;;;0.67;82.60;95443.97;4882279;29;20049;-73
2020/12/10 06:16:36;;;;;;;33.83;17.73;;;;;;;0.66;82.50;95442.38;4866090;29;20041;-73
2020/12/10 06:19:07;;;;;;;32.95;18.08;;;;;;;0.66;82.34;95443.16;4882673;29;20037;-73
2020/12/10 06:21:39;;;;;;;40.78;19.77;;;;;;;0.68;82.52;95448.16;4874304;29;20052;-73
2020/12/10 06:24:26;;;;;;;39.75;19.08;;;;;;;0.66;82.53;95440.59;4882769;29;20041;-73
2020/12/10 06:26:54;;;;;;;34.80;17.05;;;;;;;0.65;82.40;95446.75;4882206;29;20033;-73
2020/12/10 06:29:25;;;;;;;38.85;18.67;;;;;;;0.65;82.54;95448.50;4882558;29;20416;-73
2020/12/10 06:32:05;;;;;;;36.20;18.27;;;;;;;0.65;82.51;95441.56;4882065;29;20041;-73
2020/12/10 06:34:33;;;;;;;33.05;17.55;;;;;;;0.67;82.48;95446.53;4874528;29;20041;-73
2020/12/10 06:37:14;;;;;;;34.00;17.48;;;;;;;0.67;82.43;95438.78;4871931;29;20040;-73
2020/12/10 06:39:40;;;;;;;35.97;17.30;;;;;;;0.68;82.43;95436.03;4882338;29;20037;-73
2020/12/10 06:42:07;;;;;;;36.97;18.10;;;;;;;0.68;82.46;95438.63;4882005;29;20053;-74
2020/12/10 06:44:51;;;;;;;38.17;18.83;;;;;;;0.68;82.43;95441.19;4876318;29;20135;-74
2020/12/10 06:47:18;;;;;;;39.65;18.23;;;;;;;0.68;82.53;95443.78;4882540;29;20501;-74
2020/12/10 06:49:44;;;;;;;37.70;18.83;;;;;;;0.68;82.42;95448.94;4882344;29;20041;-74
2020/12/10 06:52:18;;;;;;;35.40;17.70;;;;;;;0.68;82.42;95453.31;4870361;29;20033;-74
2020/12/10 06:55:04;;;;;;;36.30;17.85;;;;;;;0.68;82.44;95448.16;4881865;29;20548;-74
2020/12/10 06:57:51;;;;;;;32.25;17.08;;;;;;;0.68;82.66;95448.16;4871449;29;20418;-73
2020/12/10 07:00:41;;;;;;;35.53;17.85;;;;;;;0.66;82.54;95450.91;4881666;29;20410;-74
2020/12/10 07:03:19;;;;;;;35.47;17.15;;;;;;;0.83;86.12;95453.28;4881240;29;20037;-75
2020/12/10 07:05:45;;;;;;;38.28;19.05;;;;;;;0.90;84.13;95449.78;4881661;29;20049;-74
2020/12/10 07:08:14;;;;;;;35.90;17.95;;;;;;;0.93;83.38;95440.91;4880693;29;20410;-74
2020/12/10 07:10:42;;;;;;;33.65;17.52;;;;;;;0.95;83.06;95452.63;4881804;29;20048;-74
2020/12/10 07:13:09;;;;;;;32.50;17.15;;;;;;;0.95;83.00;95450.06;4881514;29;20112;-74
2020/12/10 07:15:36;;;;;;;37.08;18.33;;;;;;;0.95;83.01;95454.41;4881700;29;20051;-74
2020/12/10 07:18:04;;;;;;;33.97;18.23;;;;;;;0.94;82.90;95458.75;4881518;29;20033;-74
2020/12/10 07:20:32;;;;;;;31.38;17.73;;;;;;;0.94;82.63;95456.19;4881211;29;20486;-75
2020/12/10 07:23:01;;;;;;;36.15;18.48;;;;;;;0.95;82.71;95467.31;4881587;29;20041;-74
2020/12/10 07:25:28;;;;;;;36.45;19.10;;;;;;;0.95;82.86;95467.31;4881417;29;20497;-74
2020/12/10 07:27:55;;;;;;;37.75;18.95;;;;;;;0.96;82.76;95468.91;4881329;29;20041;-74
2020/12/10 07:30:24;;;;;;;35.28;17.15;;;;;;;0.96;82.69;95461.97;4880897;29;20486;-74
2020/12/10 07:32:55;;;;;;;35.33;18.15;;;;;;;0.97;82.66;95461.00;4881469;29;20049;-74
2020/12/10 07:35:33;;;;;;;34.20;18.38;;;;;;;0.97;82.82;95460.19;4880972;29;20057;-74
2020/12/10 07:38:09;;;;;;;34.55;18.17;;;;;;;0.98;83.13;95456.63;4879638;29;20033;-74
2020/12/10 07:40:35;;;;;;;39.05;18.58;;;;;;;0.98;83.25;95452.25;4881024;29;20394;-74
2020/12/10 07:43:03;;;;;;;37.35;19.50;;;;;;;1.01;83.20;95451.91;4880821;29;20040;-74
2020/12/10 07:45:30;;;;;;;37.08;19.52;;;;;;;1.04;82.99;95452.53;4881302;29;20068;-74
2020/12/10 07:48:02;;;;;;;36.55;19.58;;;;;;;1.04;82.51;95455.91;4879777;29;20497;-74
2020/12/10 07:50:30;;;;;;;37.90;19.00;;;;;;;1.02;82.39;95455.28;4880716;29;20056;-74
2020/12/10 07:52:58;;;;;;;33.38;17.23;;;;;;;0.97;82.21;95455.81;4881038;29;20478;-74
2020/12/10 07:55:25;;;;;;;33.80;16.33;;;;;;;0.94;82.25;95458.75;4863671;29;20060;-74
2020/12/10 07:57:57;;;;;;;28.83;15.57;;;;;;;0.94;82.30;95458.75;4880941;29;20041;-74
2020/12/10 08:00:27;;;;;;;28.88;15.63;;;;;;;0.92;82.13;95460.72;4881159;29;20041;-74
2020/12/10 08:02:59;;;;;;;27.75;14.75;;;;;;;0.93;81.86;95454.59;4880078;29;20482;-75
2020/12/10 08:05:26;;;;;;;25.95;14.15;;;;;;;0.93;81.82;95452.00;4880650;29;20482;-74
2020/12/10 08:07:53;;;;;;;25.73;14.23;;;;;;;0.92;81.83;95452.97;4879652;29;20064;-74
2020/12/10 08:10:26;;;;;;;28.63;15.52;;;;;;;0.94;81.84;95450.22;4869537;29;20053;-74
2020/12/10 08:13:25;;;;;;;29.73;15.33;;;;;;;0.92;81.54;95452.97;4880263;29;20037;-74
2020/12/10 08:15:51;;;;;;;17.33;8.98;;;;;;;0.90;81.58;95454.16;4869151;29;20286;-74
2020/12/10 08:18:20;;;;;;;14.90;8.73;;;;;;;0.89;81.30;95455.13;4879145;29;20045;-74
2020/12/10 08:20:48;;;;;;;17.48;10.02;;;;;;;0.88;81.44;95456.91;4880597;29;20049;-74
2020/12/10 08:23:16;;;;;;;22.70;11.98;;;;;;;0.90;81.66;95446.41;4880457;29;20041;-74
2020/12/10 08:25:44;;;;;;;24.27;13.38;;;;;;;0.89;81.64;95444.81;4880339;29;20473;-74
2020/12/10 08:28:12;;;;;;;23.83;13.07;;;;;;;0.88;81.65;95448.38;4880209;29;20037;-74
2020/12/10 08:30:54;;;;;;;26.13;14.68;;;;;;;0.86;81.26;95448.56;4879580;29;20056;-74
2020/12/10 08:33:20;;;;;;;26.08;14.02;;;;;;;0.87;81.37;95454.53;4880039;29;20499;-74
2020/12/10 08:35:47;;;;;;;26.17;13.90;;;;;;;0.89;81.64;95450.78;4880276;29;20112;-74
2020/12/10 08:38:15;;;;;;;26.60;13.82;;;;;;;0.94;81.93;95447.63;4880053;29;20056;-74
2020/12/10 08:40:41;;;;;;;20.85;12.23;;;;;;;0.93;81.00;95449.44;4880225;29;20048;-74
2020/12/10 08:43:15;;;;;;;25.05;13.60;;;;;;;0.93;81.06;95446.84;4879205;29;20045;-75
2020/12/10 08:45:46;;;;;;;22.88;12.13;;;;;;;0.95;81.19;95457.00;4879987;29;20066;-74
2020/12/10 08:48:23;;;;;;;21.90;12.10;;;;;;;0.95;80.74;95451.84;4880109;29;20060;-74
2020/12/10 08:50:57;;;;;;;23.65;12.70;;;;;;;0.93;80.21;95453.81;4879672;29;20041;-74
2020/12/10 08:53:24;;;;;;;19.65;11.15;;;;;;;0.90;80.47;95457.53;4880014;29;20041;-74
2020/12/10 08:55:57;;;;;;;23.83;13.07;;;;;;;0.93;80.99;95459.75;4879810;29;20056;-74
2020/12/10 08:58:26;;;;;;;23.23;12.88;;;;;;;1.03;82.68;95459.47;4879534;29;20537;-75
2020/12/10 09:00:54;;;;;;;46.72;24.85;;;;;;;1.29;88.28;95451.19;4879077;29;20049;-74
2020/12/10 09:03:21;;;;;;;28.33;14.98;;;;;;;1.57;84.96;95453.00;4880028;29;20036;-74
2020/12/10 09:05:49;;;;;;;27.02;15.20;;;;;;;1.62;82.23;95446.31;4878549;29;20037;-74
2020/12/10 09:08:15;;;;;;;26.60;16.00;;;;;;;1.61;81.54;95462.78;4879459;29;20490;-74
2020/12/10 09:10:42;;;;;;;34.65;17.35;;;;;;;1.55;81.08;95452.41;4847653;29;20033;-74
2020/12/10 09:13:09;;;;;;;33.83;17.70;;;;;;;1.52;81.22;95460.53;4878309;29;20474;-74
2020/12/10 09:15:37;;;;;;;32.22;17.98;;;;;;;1.47;81.01;95450.75;4879692;29;20041;-74
2020/12/10 09:18:03;;;;;;;27.85;16.70;;;;;;;1.44;80.94;95452.91;4879928;29;20060;-75
2020/12/10 09:20:30;;;;;;;28.50;16.60;;;;;;;1.40;80.53;95453.25;4880579;29;20040;-74
2020/12/10 09:22:56;;;;;;;38.25;21.70;;;;;;;1.93;93.64;95458.09;4879922;29;20060;-74
2020/12/10 09:25:23;;;;;;;29.40;15.98;;;;;;;2.19;85.18;95460.03;4878962;29;20045;-74
2020/12/10 09:27:49;;;;;;;30.27;16.55;;;;;;;2.16;81.76;95463.03;4879509;29;20402;-74
2020/12/10 09:30:15;;;;;;;31.05;16.50;;;;;;;2.03;80.68;95457.75;4864815;29;20052;-74
2020/12/10 09:32:42;;;;;;;31.33;17.00;;;;;;;1.92;80.46;95453.09;4878965;29;21017;-74
2020/12/10 09:35:11;;;;;;;19.77;11.65;;;;;;;1.77;79.59;95459.16;4861974;29;20049;-74
2020/12/10 09:37:39;;;;;;;23.00;13.27;;;;;;;1.57;78.97;95468.53;4877657;29;20045;-74
2020/12/10 09:40:08;;;;;;;26.30;14.90;;;;;;;1.47;79.60;95460.28;4879211;29;20497;-74
2020/12/10 09:42:42;;;;;;;30.08;15.25;;;;;;;1.40;80.16;95453.25;4879132;29;20049;-74
2020/12/10 09:45:11;;;;;;;27.00;15.43;;;;;;;1.41;80.69;95454.88;4878141;29;20405;-74
2020/12/10 09:47:37;;;;;;;17.80;11.05;;;;;;;1.40;80.53;95448.09;4878066;29;20036;-74
2020/12/10 09:50:06;;;;;;;20.67;13.02;;;;;;;1.31;79.44;95448.44;4879245;29;20041;-75
2020/12/10 09:52:37;;;;;;;33.45;18.48;;;;;;;1.26;79.92;95441.22;4878758;29;20053;-74
2020/12/10 09:57:32;;;;;;;27.63;15.15;;;;;;;1.12;79.81;95434.34;4879053;29;20494;-74
2020/12/10 09:59:59;;;;;;;26.05;14.43;;;;;;;1.09;80.05;95439.84;4862658;29;20048;-75
2020/12/10 10:02:26;;;;;;;23.38;13.18;;;;;;;1.08;79.73;95443.44;4878066;29;20052;-74
2020/12/10 10:04:53;;;;;;;27.38;15.93;;;;;;;1.10;79.98;95436.31;4879176;29;20505;-75
2020/12/10 10:07:19;;;;;;;27.80;15.30;;;;;;;1.16;80.21;95433.00;4855114;29;20044;-74
2020/12/10 10:09:47;;;;;;;26.13;16.10;;;;;;;1.25;80.56;95437.03;4851555;29;20448;-74
2020/12/10 10:12:13;;;;;;;26.48;13.95;;;;;;;1.31;80.46;95430.34;4878804;29;20049;-74
2020/12/10 10:14:41;;;;;;;25.75;13.95;;;;;;;1.34;79.90;95430.75;4864448;29;20048;-75
2020/12/10 10:17:09;;;;;;;25.08;13.52;;;;;;;1.36;79.35;95428.78;4878580;29;20045;-74
2020/12/10 10:19:36;;;;;;;22.05;13.60;;;;;;;1.35;79.52;95434.16;4874706;29;20471;-75
2020/12/10 10:22:03;;;;;;;22.75;13.73;;;;;;;1.37;79.25;95425.22;4878322;29;20037;-75
2020/12/10 10:24:31;;;;;;;24.10;14.60;;;;;;;1.41;79.59;95421.28;4877863;29;20048;-73
2020/12/10 10:26:58;;;;;;;23.80;13.18;;;;;;;1.44;79.57;95434.81;4879131;29;20045;-74
2020/12/10 10:29:24;;;;;;;28.27;16.20;;;;;;;1.52;80.86;95426.94;4877590;29;20474;-74
2020/12/10 10:31:52;;;;;;;28.77;14.90;;;;;;;1.63;80.28;95429.81;4878643;29;20044;-74
2020/12/10 10:34:19;;;;;;;22.27;13.80;;;;;;;1.69;79.92;95425.69;4878002;29;20171;-75
2020/12/10 10:36:48;;;;;;;25.85;13.65;;;;;;;1.71;79.59;95423.72;4880924;29;20041;-74
2020/12/10 10:39:14;;;;;;;26.83;15.20;;;;;;;1.74;79.40;95422.53;4882463;29;20041;-75
2020/12/10 10:41:46;;;;;;;24.92;14.05;;;;;;;1.74;78.95;95423.34;4865285;29;20052;-74
2020/12/10 10:44:13;;;;;;;31.08;15.43;;;;;;;1.73;79.55;95418.38;4881809;29;20033;-74
2020/12/10 10:46:39;;;;;;;30.10;17.48;;;;;;;1.80;79.41;95420.00;4881722;29;20048;-75
2020/12/10 10:49:05;;;;;;;27.48;16.60;;;;;;;1.83;79.16;95429.19;4865227;29;20055;-74
2020/12/10 10:51:32;;;;;;;27.75;17.15;;;;;;;1.76;78.40;95425.72;4881584;29;20049;-74
2020/12/10 10:53:58;;;;;;;25.20;15.10;;;;;;;1.68;78.30;95423.28;4881729;29;20409;-75
2020/12/10 10:56:25;;;;;;;25.88;12.75;;;;;;;1.76;82.79;95418.78;4880866;29;20159;-74
2020/12/10 10:58:51;;;;;;;30.52;16.60;;;;;;;2.16;82.94;95424.22;4880428;29;20041;-74
2020/12/10 11:01:28;;;;;;;26.80;15.93;;;;;;;2.28;79.77;95419.31;4882298;29;20470;-74
2020/12/10 11:03:56;;;;;;;26.08;15.10;;;;;;;2.26;79.15;95417.91;4881485;29;20049;-75
2020/12/10 11:06:22;;;;;;;28.92;16.23;;;;;;;2.19;78.52;95413.50;4881649;29;20053;-74
2020/12/10 11:08:48;;;;;;;28.83;15.25;;;;;;;2.15;78.37;95416.66;4865175;29;20045;-74
2020/12/10 11:11:21;;;;;;;26.55;14.98;;;;;;;2.10;78.32;95411.25;4880797;29;20053;-74
2020/12/10 11:13:49;;;;;;;25.77;14.23;;;;;;;2.46;89.58;95408.47;4881723;29;20052;-74
2020/12/10 11:16:16;;;;;;;23.58;14.30;;;;;;;3.43;93.24;95406.50;4881640;29;20386;-74
2020/12/10 11:18:44;;;;;;;26.60;15.65;;;;;;;4.10;84.08;95412.47;4881174;29;20064;-74
2020/12/10 11:21:13;;;;;;;25.42;15.27;;;;;;;4.13;79.79;95409.44;4880930;29;20123;-75
2020/12/10 11:23:41;;;;;;;17.50;10.40;;;;;;;4.50;82.48;95406.38;4881112;29;20044;-74
2020/12/10 11:26:07;;;;;;;24.15;13.60;;;;;;;4.77;79.40;95402.66;4864965;29;20057;-75
2020/12/10 11:28:34;;;;;;;24.50;12.50;;;;;;;4.60;77.62;95401.53;4864333;29;20470;-75
2020/12/10 11:31:00;;;;;;;26.08;15.00;;;;;;;4.42;76.95;95404.78;4880338;29;20037;-74
2020/12/10 11:33:26;;;;;;;26.40;14.73;;;;;;;4.13;76.36;95406.84;4881026;29;20048;-75